sensor_id;sensor_type;location;lat;lon;timestamp;pressure;altitude;pressure_sealevel;temperature;humidity
36092;BME280;22147;52.388;13.390;2023-01-16T00:01:29;99457.16;;;2.72;100.00
36092;BME280;22147;52.388;13.390;2023-01-16T00:03:58;99475.75;;;2.75;100.00
36092;BME280;22147;52.388;13.390;2023-01-16T00:06:28;99473.19;;;2.79;100.00
36092;BME280;22147;52.388;13.390;2023-01-16T00:08:58;99461.50;;;2.87;100.00
36092;BME280;22147;52.388;13.390;2023-01-16T00:11:27;99463.44;;;2.73;100.00
36092;BME280;22147;52.388;13.390;2023-01-16T00:13:56;99459.31;;;2.61;100.00
36092;BME280;22147;52.388;13.390;2023-01-16T00:16:27;99454.84;;;2.52;100.00
36092;BME280;22147;52.388;13.390;2023-01-16T00:18:56;99453.63;;;2.44;100.00
36092;BME280;22147;52.388;13.390;2023-01-16T00:21:24;99453.13;;;2.42;100.00
36092;BME280;22147;52.388;13.390;2023-01-16T00:23:54;99448.66;;;2.46;100.00
36092;BME280;22147;52.388;13.390;2023-01-16T00:26:28;99450.69;;;2.54;100.00
36092;BME280;22147;52.388;13.390;2023-01-16T00:28:58;99444.09;;;2.41;100.00
36092;BME280;22147;52.388;13.390;2023-01-16T00:31:28;99447.16;;;2.40;100.00
36092;BME280;22147;52.388;13.390;2023-01-16T00:33:58;99446.34;;;2.39;100.00
36092;BME280;22147;52.388;13.390;2023-01-16T00:36:28;99447.03;;;2.31;100.00
36092;BME280;22147;52.388;13.390;2023-01-16T00:38:58;99454.94;;;2.19;100.00
36092;BME280;22147;52.388;13.390;2023-01-16T00:41:28;99463.50;;;2.31;100.00
36092;BME280;22147;52.388;13.390;2023-01-16T00:43:58;99461.34;;;2.28;100.00
36092;BME280;22147;52.388;13.390;2023-01-16T00:46:28;99461.34;;;2.28;100.00
36092;BME280;22147;52.388;13.390;2023-01-16T00:48:59;99459.09;;;2.30;100.00
36092;BME280;22147;52.388;13.390;2023-01-16T00:51:29;99454.31;;;2.22;100.00
36092;BME280;22147;52.388;13.390;2023-01-16T00:53:59;99463.47;;;2.17;100.00
36092;BME280;22147;52.388;13.390;2023-01-16T00:56:29;99460.13;;;2.20;100.00
36092;BME280;22147;52.388;13.390;2023-01-16T00:58:58;99463.47;;;2.17;100.00
36092;BME280;22147;52.388;13.390;2023-01-16T01:01:28;99460.78;;;1.98;100.00
36092;BME280;22147;52.388;13.390;2023-01-16T01:03:59;99456.63;;;1.87;100.00
36092;BME280;22147;52.388;13.390;2023-01-16T01:06:29;99454.34;;;1.75;100.00
36092;BME280;22147;52.388;13.390;2023-01-16T01:08:59;99454.69;;;1.88;100.00
36092;BME280;22147;52.388;13.390;2023-01-16T01:11:29;99461.81;;;1.89;100.00
36092;BME280;22147;52.388;13.390;2023-01-16T01:13:59;99448.69;;;1.86;100.00
36092;BME280;22147;52.388;13.390;2023-01-16T01:16:30;99461.28;;;1.87;100.00
36092;BME280;22147;52.388;13.390;2023-01-16T01:19:00;99459.66;;;1.86;100.00
36092;BME280;22147;52.388;13.390;2023-01-16T01:21:29;99459.44;;;1.82;100.00
36092;BME280;22147;52.388;13.390;2023-01-16T01:23:59;99457.31;;;1.79;100.00
36092;BME280;22147;52.388;13.390;2023-01-16T01:26:29;99448.25;;;1.65;100.00
36092;BME280;22147;52.388;13.390;2023-01-16T01:28:59;99458.22;;;1.74;100.00
36092;BME280;22147;52.388;13.390;2023-01-16T01:31:28;99451.72;;;1.84;100.00
36092;BME280;22147;52.388;13.390;2023-01-16T01:33:58;99452.34;;;1.81;100.00
36092;BME280;22147;52.388;13.390;2023-01-16T01:36:28;99460.97;;;1.88;100.00
36092;BME280;22147;52.388;13.390;2023-01-16T01:38:58;99457.47;;;1.69;100.00
36092;BME280;22147;52.388;13.390;2023-01-16T01:41:28;99449.72;;;1.76;100.00
36092;BME280;22147;52.388;13.390;2023-01-16T01:43:58;99451.22;;;1.82;100.00
36092;BME280;22147;52.388;13.390;2023-01-16T01:46:46;99444.31;;;1.71;100.00
36092;BME280;22147;52.388;13.390;2023-01-16T01:49:28;99437.50;;;1.68;100.00
36092;BME280;22147;52.388;13.390;2023-01-16T01:52:03;99436.78;;;1.62;100.00
36092;BME280;22147;52.388;13.390;2023-01-16T01:54:43;99442.81;;;1.78;100.00
36092;BME280;22147;52.388;13.390;2023-01-16T01:57:44;99444.25;;;1.76;100.00
36092;BME280;22147;52.388;13.390;2023-01-16T02:00:21;99446.03;;;1.67;100.00
36092;BME280;22147;52.388;13.390;2023-01-16T02:03:13;99440.84;;;1.65;100.00
36092;BME280;22147;52.388;13.390;2023-01-16T02:05:49;99438.19;;;1.60;100.00
36092;BME280;22147;52.388;13.390;2023-01-16T02:08:29;99436.88;;;1.57;100.00
36092;BME280;22147;52.388;13.390;2023-01-16T02:11:09;99430.03;;;1.74;100.00
36092;BME280;22147;52.388;13.390;2023-01-16T02:14:00;99432.56;;;1.70;100.00
36092;BME280;22147;52.388;13.390;2023-01-16T02:16:35;99428.69;;;1.71;100.00
36092;BME280;22147;52.388;13.390;2023-01-16T02:19:48;99435.75;;;1.58;100.00
36092;BME280;22147;52.388;13.390;2023-01-16T02:45:06;99416.41;;;1.55;100.00
36092;BME280;22147;52.388;13.390;2023-01-16T02:48:13;99402.97;;;1.39;100.00
36092;BME280;22147;52.388;13.390;2023-01-16T02:53:57;99396.81;;;1.48;100.00
36092;BME280;22147;52.388;13.390;2023-01-16T02:57:14;99393.44;;;1.37;100.00
36092;BME280;22147;52.388;13.390;2023-01-16T02:59:50;99400.19;;;1.58;100.00
36092;BME280;22147;52.388;13.390;2023-01-16T03:02:20;99397.38;;;1.63;100.00
36092;BME280;22147;52.388;13.390;2023-01-16T03:04:52;99392.34;;;1.38;100.00
36092;BME280;22147;52.388;13.390;2023-01-16T03:11:16;99373.59;;;1.45;100.00
36092;BME280;22147;52.388;13.390;2023-01-16T03:14:19;99377.47;;;1.44;100.00
36092;BME280;22147;52.388;13.390;2023-01-16T03:18:10;99370.97;;;1.40;100.00
36092;BME280;22147;52.388;13.390;2023-01-16T03:23:58;99358.31;;;1.44;100.00
36092;BME280;22147;52.388;13.390;2023-01-16T03:30:10;99356.84;;;1.33;100.00
36092;BME280;22147;52.388;13.390;2023-01-16T03:36:21;99353.34;;;1.46;100.00
36092;BME280;22147;52.388;13.390;2023-01-16T03:39:03;99357.69;;;1.47;100.00
36092;BME280;22147;52.388;13.390;2023-01-16T03:41:41;99359.63;;;1.47;100.00
36092;BME280;22147;52.388;13.390;2023-01-16T03:44:33;99352.00;;;1.43;100.00
36092;BME280;22147;52.388;13.390;2023-01-16T03:47:14;99347.66;;;1.42;100.00
36092;BME280;22147;52.388;13.390;2023-01-16T03:50:07;99347.16;;;1.40;100.00
36092;BME280;22147;52.388;13.390;2023-01-16T03:52:47;99340.16;;;1.48;100.00
36092;BME280;22147;52.388;13.390;2023-01-16T03:55:33;99341.78;;;1.49;100.00
36092;BME280;22147;52.388;13.390;2023-01-16T03:58:29;99339.09;;;1.63;100.00
36092;BME280;22147;52.388;13.390;2023-01-16T04:01:31;99335.31;;;1.59;100.00
36092;BME280;22147;52.388;13.390;2023-01-16T04:04:28;99327.22;;;1.68;100.00
36092;BME280;22147;52.388;13.390;2023-01-16T04:08:19;99322.44;;;1.59;100.00
36092;BME280;22147;52.388;13.390;2023-01-16T04:10:48;99312.81;;;1.62;100.00
36092;BME280;22147;52.388;13.390;2023-01-16T04:13:31;99303.19;;;1.51;100.00
36092;BME280;22147;52.388;13.390;2023-01-16T04:16:10;99296.25;;;1.26;100.00
36092;BME280;22147;52.388;13.390;2023-01-16T04:18:43;99295.25;;;1.35;100.00
36092;BME280;22147;52.388;13.390;2023-01-16T04:21:14;99300.53;;;1.32;100.00
36092;BME280;22147;52.388;13.390;2023-01-16T04:23:43;99296.47;;;1.43;100.00
36092;BME280;22147;52.388;13.390;2023-01-16T04:26:10;99292.50;;;1.35;100.00
36092;BME280;22147;52.388;13.390;2023-01-16T04:28:39;99291.59;;;1.26;100.00
36092;BME280;22147;52.388;13.390;2023-01-16T04:31:07;99280.25;;;1.33;100.00
36092;BME280;22147;52.388;13.390;2023-01-16T04:33:36;99271.75;;;1.34;100.00
36092;BME280;22147;52.388;13.390;2023-01-16T04:36:04;99267.38;;;1.33;100.00
36092;BME280;22147;52.388;13.390;2023-01-16T04:38:33;99267.88;;;1.21;100.00
36092;BME280;22147;52.388;13.390;2023-01-16T04:41:01;99265.09;;;1.08;100.00
36092;BME280;22147;52.388;13.390;2023-01-16T04:43:29;99261.53;;;0.93;100.00
36092;BME280;22147;52.388;13.390;2023-01-16T04:45:58;99263.66;;;0.96;100.00
36092;BME280;22147;52.388;13.390;2023-01-16T04:48:27;99255.88;;;1.04;100.00
36092;BME280;22147;52.388;13.390;2023-01-16T04:50:55;99256.47;;;1.00;100.00
36092;BME280;22147;52.388;13.390;2023-01-16T04:53:23;99246.41;;;1.15;100.00
36092;BME280;22147;52.388;13.390;2023-01-16T04:55:52;99247.19;;;1.15;100.00
36092;BME280;22147;52.388;13.390;2023-01-16T04:58:20;99243.16;;;1.13;100.00
36092;BME280;22147;52.388;13.390;2023-01-16T05:00:48;99243.72;;;1.10;100.00
36092;BME280;22147;52.388;13.390;2023-01-16T05:03:17;99250.63;;;1.07;100.00
36092;BME280;22147;52.388;13.390;2023-01-16T05:05:45;99237.38;;;1.14;100.00
36092;BME280;22147;52.388;13.390;2023-01-16T05:08:14;99238.38;;;1.18;100.00
36092;BME280;22147;52.388;13.390;2023-01-16T05:10:47;99237.84;;;1.02;100.00
36092;BME280;22147;52.388;13.390;2023-01-16T05:13:17;99232.09;;;1.04;100.00
36092;BME280;22147;52.388;13.390;2023-01-16T05:15:47;99222.69;;;1.10;100.00
36092;BME280;22147;52.388;13.390;2023-01-16T05:18:17;99219.97;;;1.24;100.00
36092;BME280;22147;52.388;13.390;2023-01-16T05:20:46;99221.78;;;1.15;100.00
36092;BME280;22147;52.388;13.390;2023-01-16T05:23:16;99220.75;;;1.25;100.00
36092;BME280;22147;52.388;13.390;2023-01-16T05:25:46;99229.00;;;1.38;100.00
36092;BME280;22147;52.388;13.390;2023-01-16T05:28:18;99222.00;;;1.46;100.00
36092;BME280;22147;52.388;13.390;2023-01-16T05:30:48;99222.59;;;1.43;100.00
36092;BME280;22147;52.388;13.390;2023-01-16T05:33:18;99213.97;;;1.50;100.00
36092;BME280;22147;52.388;13.390;2023-01-16T05:35:48;99214.59;;;1.74;100.00
36092;BME280;22147;52.388;13.390;2023-01-16T05:38:19;99216.13;;;1.53;100.00
36092;BME280;22147;52.388;13.390;2023-01-16T05:40:49;99213.69;;;1.51;100.00
36092;BME280;22147;52.388;13.390;2023-01-16T05:43:20;99203.34;;;1.62;100.00
36092;BME280;22147;52.388;13.390;2023-01-16T05:45:49;99203.22;;;1.67;100.00
36092;BME280;22147;52.388;13.390;2023-01-16T05:48:19;99203.44;;;1.71;100.00
36092;BME280;22147;52.388;13.390;2023-01-16T05:50:50;99198.53;;;1.81;100.00
36092;BME280;22147;52.388;13.390;2023-01-16T05:53:20;99197.88;;;1.76;100.00
36092;BME280;22147;52.388;13.390;2023-01-16T05:55:50;99194.63;;;1.74;100.00
36092;BME280;22147;52.388;13.390;2023-01-16T05:58:20;99192.28;;;1.67;100.00
36092;BME280;22147;52.388;13.390;2023-01-16T06:00:49;99200.25;;;1.91;100.00
36092;BME280;22147;52.388;13.390;2023-01-16T06:03:19;99192.13;;;1.86;100.00
36092;BME280;22147;52.388;13.390;2023-01-16T06:05:50;99194.22;;;1.67;100.00
36092;BME280;22147;52.388;13.390;2023-01-16T06:08:20;99183.88;;;1.63;100.00
36092;BME280;22147;52.388;13.390;2023-01-16T06:10:49;99177.16;;;1.83;100.00
36092;BME280;22147;52.388;13.390;2023-01-16T06:13:17;99180.50;;;1.80;100.00
36092;BME280;22147;52.388;13.390;2023-01-16T06:15:46;99189.16;;;1.74;100.00
36092;BME280;22147;52.388;13.390;2023-01-16T06:18:14;99188.00;;;1.75;100.00
36092;BME280;22147;52.388;13.390;2023-01-16T06:20:43;99185.69;;;1.68;100.00
36092;BME280;22147;52.388;13.390;2023-01-16T06:23:11;99177.28;;;1.65;100.00
36092;BME280;22147;52.388;13.390;2023-01-16T06:25:39;99171.44;;;1.57;100.00
36092;BME280;22147;52.388;13.390;2023-01-16T06:28:08;99160.25;;;1.68;100.00
36092;BME280;22147;52.388;13.390;2023-01-16T06:30:36;99171.22;;;1.68;100.00
36092;BME280;22147;52.388;13.390;2023-01-16T06:33:05;99166.31;;;1.78;100.00
36092;BME280;22147;52.388;13.390;2023-01-16T06:35:33;99166.13;;;1.75;100.00
36092;BME280;22147;52.388;13.390;2023-01-16T06:38:02;99168.84;;;1.75;100.00
36092;BME280;22147;52.388;13.390;2023-01-16T06:40:30;99161.44;;;1.75;100.00
36092;BME280;22147;52.388;13.390;2023-01-16T06:42:58;99173.13;;;1.67;100.00
36092;BME280;22147;52.388;13.390;2023-01-16T06:45:27;99164.41;;;1.65;100.00
36092;BME280;22147;52.388;13.390;2023-01-16T06:47:55;99157.75;;;1.57;100.00
36092;BME280;22147;52.388;13.390;2023-01-16T06:50:24;99158.16;;;1.51;100.00
36092;BME280;22147;52.388;13.390;2023-01-16T06:52:52;99154.72;;;1.45;100.00
36092;BME280;22147;52.388;13.390;2023-01-16T06:55:21;99160.19;;;1.59;100.00
36092;BME280;22147;52.388;13.390;2023-01-16T06:57:49;99156.59;;;1.72;100.00
36092;BME280;22147;52.388;13.390;2023-01-16T07:00:18;99155.47;;;1.73;100.00
36092;BME280;22147;52.388;13.390;2023-01-16T07:02:55;99154.59;;;1.64;100.00
36092;BME280;22147;52.388;13.390;2023-01-16T07:05:27;99154.47;;;1.69;100.00
36092;BME280;22147;52.388;13.390;2023-01-16T07:07:57;99153.78;;;1.63;100.00
36092;BME280;22147;52.388;13.390;2023-01-16T07:10:27;99148.00;;;1.51;100.00
36092;BME280;22147;52.388;13.390;2023-01-16T07:12:57;99146.06;;;1.66;100.00
36092;BME280;22147;52.388;13.390;2023-01-16T07:15:27;99142.09;;;1.72;100.00
36092;BME280;22147;52.388;13.390;2023-01-16T07:18:16;99146.59;;;1.90;100.00
36092;BME280;22147;52.388;13.390;2023-01-16T07:21:12;99150.50;;;1.75;100.00
36092;BME280;22147;52.388;13.390;2023-01-16T07:24:06;99146.31;;;1.92;100.00
36092;BME280;22147;52.388;13.390;2023-01-16T07:26:43;99139.31;;;1.86;100.00
36092;BME280;22147;52.388;13.390;2023-01-16T07:29:16;99144.50;;;1.87;100.00
36092;BME280;22147;52.388;13.390;2023-01-16T07:31:44;99135.91;;;1.80;100.00
36092;BME280;22147;52.388;13.390;2023-01-16T07:34:12;99138.34;;;2.04;100.00
36092;BME280;22147;52.388;13.390;2023-01-16T07:36:41;99134.75;;;1.95;100.00
36092;BME280;22147;52.388;13.390;2023-01-16T07:39:09;99136.84;;;1.98;100.00
36092;BME280;22147;52.388;13.390;2023-01-16T07:41:37;99133.81;;;1.99;100.00
36092;BME280;22147;52.388;13.390;2023-01-16T07:44:24;99138.28;;;1.95;100.00
36092;BME280;22147;52.388;13.390;2023-01-16T07:46:54;99135.28;;;1.83;100.00
36092;BME280;22147;52.388;13.390;2023-01-16T07:49:25;99133.38;;;2.06;100.00
36092;BME280;22147;52.388;13.390;2023-01-16T07:51:55;99123.38;;;2.01;100.00
36092;BME280;22147;52.388;13.390;2023-01-16T07:54:25;99113.50;;;2.00;100.00
36092;BME280;22147;52.388;13.390;2023-01-16T07:56:55;99105.25;;;2.14;100.00
36092;BME280;22147;52.388;13.390;2023-01-16T07:59:25;99108.75;;;2.29;100.00
36092;BME280;22147;52.388;13.390;2023-01-16T08:01:55;99100.34;;;2.25;100.00
36092;BME280;22147;52.388;13.390;2023-01-16T08:04:25;99099.09;;;2.09;100.00
36092;BME280;22147;52.388;13.390;2023-01-16T08:06:55;99095.22;;;2.10;100.00
36092;BME280;22147;52.388;13.390;2023-01-16T08:09:25;99092.16;;;2.11;100.00
36092;BME280;22147;52.388;13.390;2023-01-16T08:11:55;99088.22;;;2.26;100.00
36092;BME280;22147;52.388;13.390;2023-01-16T08:14:25;99082.25;;;2.24;100.00
36092;BME280;22147;52.388;13.390;2023-01-16T08:16:54;99073.72;;;2.26;100.00
36092;BME280;22147;52.388;13.390;2023-01-16T08:19:22;99077.41;;;2.21;100.00
36092;BME280;22147;52.388;13.390;2023-01-16T08:21:50;99072.69;;;2.13;100.00
36092;BME280;22147;52.388;13.390;2023-01-16T08:24:19;99067.72;;;2.15;100.00
36092;BME280;22147;52.388;13.390;2023-01-16T08:26:48;99060.97;;;2.21;100.00
36092;BME280;22147;52.388;13.390;2023-01-16T08:29:16;99067.19;;;2.35;100.00
36092;BME280;22147;52.388;13.390;2023-01-16T08:31:44;99058.47;;;2.33;100.00
36092;BME280;22147;52.388;13.390;2023-01-16T08:34:13;99062.06;;;2.42;100.00
36092;BME280;22147;52.388;13.390;2023-01-16T08:36:42;99046.66;;;2.55;100.00
36092;BME280;22147;52.388;13.390;2023-01-16T08:39:12;99042.75;;;2.48;100.00
36092;BME280;22147;52.388;13.390;2023-01-16T08:41:41;99043.00;;;2.69;100.00
36092;BME280;22147;52.388;13.390;2023-01-16T08:44:27;99039.16;;;2.78;100.00
36092;BME280;22147;52.388;13.390;2023-01-16T08:47:24;99027.53;;;2.73;100.00
36092;BME280;22147;52.388;13.390;2023-01-16T08:50:16;99030.47;;;2.45;100.00
36092;BME280;22147;52.388;13.390;2023-01-16T08:53:06;99021.47;;;2.44;100.00
36092;BME280;22147;52.388;13.390;2023-01-16T08:55:35;99011.78;;;2.47;100.00
36092;BME280;22147;52.388;13.390;2023-01-16T08:58:06;98996.88;;;2.31;100.00
36092;BME280;22147;52.388;13.390;2023-01-16T09:00:36;98989.47;;;2.22;100.00
36092;BME280;22147;52.388;13.390;2023-01-16T09:03:05;98989.53;;;2.40;100.00
36092;BME280;22147;52.388;13.390;2023-01-16T09:05:35;98995.44;;;2.24;100.00
36092;BME280;22147;52.388;13.390;2023-01-16T09:08:05;98991.06;;;2.23;100.00
36092;BME280;22147;52.388;13.390;2023-01-16T09:10:35;98997.00;;;2.17;100.00
36092;BME280;22147;52.388;13.390;2023-01-16T09:13:05;98983.38;;;2.34;100.00
36092;BME280;22147;52.388;13.390;2023-01-16T09:15:51;98975.69;;;2.45;100.00
36092;BME280;22147;52.388;13.390;2023-01-16T09:18:19;98970.56;;;2.52;100.00
36092;BME280;22147;52.388;13.390;2023-01-16T09:20:48;98968.88;;;2.82;100.00
36092;BME280;22147;52.388;13.390;2023-01-16T09:23:16;98962.78;;;3.03;100.00
36092;BME280;22147;52.388;13.390;2023-01-16T09:25:46;98966.16;;;3.17;100.00
36092;BME280;22147;52.388;13.390;2023-01-16T09:28:16;98953.75;;;3.20;100.00
36092;BME280;22147;52.388;13.390;2023-01-16T09:30:44;98960.03;;;3.46;100.00
36092;BME280;22147;52.388;13.390;2023-01-16T09:33:14;98953.91;;;3.67;100.00
36092;BME280;22147;52.388;13.390;2023-01-16T09:35:43;98954.06;;;3.71;100.00
36092;BME280;22147;52.388;13.390;2023-01-16T09:43:23;98939.00;;;3.94;100.00
36092;BME280;22147;52.388;13.390;2023-01-16T09:46:27;98930.41;;;3.96;100.00
36092;BME280;22147;52.388;13.390;2023-01-16T09:49:16;98931.28;;;4.26;100.00
36092;BME280;22147;52.388;13.390;2023-01-16T09:52:28;98941.31;;;4.22;100.00
36092;BME280;22147;52.388;13.390;2023-01-16T09:55:33;98920.25;;;4.35;100.00
36092;BME280;22147;52.388;13.390;2023-01-16T09:58:30;98919.03;;;4.53;100.00
36092;BME280;22147;52.388;13.390;2023-01-16T10:01:30;98901.50;;;4.66;100.00
36092;BME280;22147;52.388;13.390;2023-01-16T10:04:21;98902.56;;;4.95;100.00
36092;BME280;22147;52.388;13.390;2023-01-16T10:20:02;98864.91;;;5.29;100.00
36092;BME280;22147;52.388;13.390;2023-01-16T10:23:01;98859.22;;;5.67;100.00
36092;BME280;22147;52.388;13.390;2023-01-16T10:26:14;98850.34;;;5.95;98.31
36092;BME280;22147;52.388;13.390;2023-01-16T10:29:23;98846.09;;;6.10;96.44
36092;BME280;22147;52.388;13.390;2023-01-16T10:32:23;98833.66;;;6.28;97.26
36092;BME280;22147;52.388;13.390;2023-01-16T10:37:45;98823.88;;;6.68;92.14
36092;BME280;22147;52.388;13.390;2023-01-16T10:40:23;98832.91;;;6.81;90.07
36092;BME280;22147;52.388;13.390;2023-01-16T10:43:15;98818.22;;;6.64;92.56
36092;BME280;22147;52.388;13.390;2023-01-16T10:46:20;98808.19;;;6.84;90.45
36092;BME280;22147;52.388;13.390;2023-01-16T10:49:21;98801.97;;;6.87;88.95
36092;BME280;22147;52.388;13.390;2023-01-16T10:52:02;98806.06;;;7.06;90.84
36092;BME280;22147;52.388;13.390;2023-01-16T10:54:34;98789.53;;;7.22;83.17
36092;BME280;22147;52.388;13.390;2023-01-16T10:57:16;98782.97;;;7.26;82.94
36092;BME280;22147;52.388;13.390;2023-01-16T10:59:54;98775.91;;;7.29;84.71
36092;BME280;22147;52.388;13.390;2023-01-16T11:02:41;98766.34;;;7.54;79.05
36092;BME280;22147;52.388;13.390;2023-01-16T11:05:35;98765.56;;;7.26;80.99
36092;BME280;22147;52.388;13.390;2023-01-16T11:08:21;98754.38;;;7.50;78.88
36092;BME280;22147;52.388;13.390;2023-01-16T11:10:52;98761.41;;;7.32;80.75
36092;BME280;22147;52.388;13.390;2023-01-16T11:13:25;98753.84;;;7.45;83.37
36092;BME280;22147;52.388;13.390;2023-01-16T11:16:27;98747.78;;;7.39;80.33
36092;BME280;22147;52.388;13.390;2023-01-16T11:19:27;98735.69;;;7.44;77.92
36092;BME280;22147;52.388;13.390;2023-01-16T11:22:01;98726.50;;;7.40;78.79
36092;BME280;22147;52.388;13.390;2023-01-16T11:24:39;98724.94;;;7.10;81.36
36092;BME280;22147;52.388;13.390;2023-01-16T11:27:22;98728.72;;;6.90;83.29
36092;BME280;22147;52.388;13.390;2023-01-16T11:29:56;98715.97;;;6.85;81.43
36092;BME280;22147;52.388;13.390;2023-01-16T11:32:26;98709.22;;;6.83;80.47
36092;BME280;22147;52.388;13.390;2023-01-16T11:34:58;98704.56;;;6.71;81.84
36092;BME280;22147;52.388;13.390;2023-01-16T11:37:29;98703.13;;;6.49;83.67
36092;BME280;22147;52.388;13.390;2023-01-16T11:40:04;98677.47;;;6.61;78.82
36092;BME280;22147;52.388;13.390;2023-01-16T11:42:35;98689.09;;;6.54;80.71
36092;BME280;22147;52.388;13.390;2023-01-16T11:45:45;98670.19;;;6.40;81.01
36092;BME280;22147;52.388;13.390;2023-01-16T11:48:45;98670.50;;;6.51;78.94
36092;BME280;22147;52.388;13.390;2023-01-16T11:51:24;98656.22;;;6.33;80.07
36092;BME280;22147;52.388;13.390;2023-01-16T11:54:00;98657.41;;;6.07;81.42
36092;BME280;22147;52.388;13.390;2023-01-16T12:00:25;98632.97;;;6.34;80.49
36092;BME280;22147;52.388;13.390;2023-01-16T12:03:51;98635.28;;;6.32;78.89
36092;BME280;22147;52.388;13.390;2023-01-16T12:06:45;98629.47;;;6.49;77.10
36092;BME280;22147;52.388;13.390;2023-01-16T12:10:05;98619.75;;;6.40;78.36
36092;BME280;22147;52.388;13.390;2023-01-16T12:13:07;98623.50;;;6.19;78.49
36092;BME280;22147;52.388;13.390;2023-01-16T12:36:02;98560.69;;;6.41;75.57
36092;BME280;22147;52.388;13.390;2023-01-16T12:39:07;98548.75;;;6.37;75.73
36092;BME280;22147;52.388;13.390;2023-01-16T12:42:03;98546.38;;;6.35;76.81
36092;BME280;22147;52.388;13.390;2023-01-16T12:51:40;98517.38;;;6.41;78.58
36092;BME280;22147;52.388;13.390;2023-01-16T12:54:41;98496.75;;;6.51;76.63
36092;BME280;22147;52.388;13.390;2023-01-16T12:57:41;98492.03;;;6.51;76.90
36092;BME280;22147;52.388;13.390;2023-01-16T13:00:30;98481.25;;;6.30;78.76
36092;BME280;22147;52.388;13.390;2023-01-16T13:05:58;98468.00;;;6.20;80.29
36092;BME280;22147;52.388;13.390;2023-01-16T13:08:36;98468.63;;;6.29;80.26
36092;BME280;22147;52.388;13.390;2023-01-16T13:11:26;98462.28;;;5.97;82.90
36092;BME280;22147;52.388;13.390;2023-01-16T13:14:37;98457.94;;;6.12;81.62
36092;BME280;22147;52.388;13.390;2023-01-16T13:17:18;98444.13;;;5.96;82.03
36092;BME280;22147;52.388;13.390;2023-01-16T13:20:02;98448.63;;;5.88;83.61
36092;BME280;22147;52.388;13.390;2023-01-16T13:23:13;98446.41;;;5.94;83.51
36092;BME280;22147;52.388;13.390;2023-01-16T13:25:54;98441.84;;;6.14;81.85
36092;BME280;22147;52.388;13.390;2023-01-16T13:31:54;98444.06;;;6.24;81.33
36092;BME280;22147;52.388;13.390;2023-01-16T13:34:52;98431.09;;;6.25;79.95
36092;BME280;22147;52.388;13.390;2023-01-16T13:41:30;98408.34;;;6.12;80.06
36092;BME280;22147;52.388;13.390;2023-01-16T13:44:21;98399.13;;;5.92;82.43
36092;BME280;22147;52.388;13.390;2023-01-16T13:47:25;98397.09;;;5.89;82.38
36092;BME280;22147;52.388;13.390;2023-01-16T13:50:28;98387.13;;;5.84;82.55
36092;BME280;22147;52.388;13.390;2023-01-16T13:53:04;98380.78;;;5.84;83.42
36092;BME280;22147;52.388;13.390;2023-01-16T13:55:40;98378.59;;;5.74;85.01
36092;BME280;22147;52.388;13.390;2023-01-16T14:00:43;98368.88;;;5.64;85.33
36092;BME280;22147;52.388;13.390;2023-01-16T14:03:30;98371.22;;;5.49;85.92
36092;BME280;22147;52.388;13.390;2023-01-16T14:23:25;98344.16;;;5.51;84.98
36092;BME280;22147;52.388;13.390;2023-01-16T14:26:38;98331.16;;;5.52;84.31
36092;BME280;22147;52.388;13.390;2023-01-16T14:32:16;98323.00;;;5.40;85.47
36092;BME280;22147;52.388;13.390;2023-01-16T14:35:03;98317.13;;;5.41;85.57
36092;BME280;22147;52.388;13.390;2023-01-16T14:37:59;98306.72;;;5.35;86.16
36092;BME280;22147;52.388;13.390;2023-01-16T14:40:58;98311.84;;;5.20;87.01
36092;BME280;22147;52.388;13.390;2023-01-16T14:44:13;98287.44;;;5.19;87.18
36092;BME280;22147;52.388;13.390;2023-01-16T14:50:17;98284.97;;;5.01;87.79
36092;BME280;22147;52.388;13.390;2023-01-16T14:56:29;98301.16;;;4.90;91.78
36092;BME280;22147;52.388;13.390;2023-01-16T15:02:34;98283.84;;;4.62;96.41
36092;BME280;22147;52.388;13.390;2023-01-16T15:05:12;98290.28;;;4.54;97.47
36092;BME280;22147;52.388;13.390;2023-01-16T15:07:53;98282.41;;;4.40;98.95
36092;BME280;22147;52.388;13.390;2023-01-16T15:10:38;98274.22;;;4.68;96.59
36092;BME280;22147;52.388;13.390;2023-01-16T15:16:08;98273.94;;;4.45;96.76
36092;BME280;22147;52.388;13.390;2023-01-16T15:18:43;98265.41;;;4.62;95.72
36092;BME280;22147;52.388;13.390;2023-01-16T15:21:32;98271.28;;;4.48;96.31
36092;BME280;22147;52.388;13.390;2023-01-16T15:24:24;98267.06;;;4.39;96.87
36092;BME280;22147;52.388;13.390;2023-01-16T15:27:20;98269.25;;;4.21;99.14
36092;BME280;22147;52.388;13.390;2023-01-16T15:30:06;98263.81;;;4.08;99.60
36092;BME280;22147;52.388;13.390;2023-01-16T15:32:59;98257.13;;;4.22;98.50
36092;BME280;22147;52.388;13.390;2023-01-16T15:35:57;98267.88;;;4.27;98.52
36092;BME280;22147;52.388;13.390;2023-01-16T15:38:26;98258.41;;;4.12;99.50
36092;BME280;22147;52.388;13.390;2023-01-16T15:41:04;98263.22;;;4.03;100.00
36092;BME280;22147;52.388;13.390;2023-01-16T15:43:37;98263.69;;;3.93;100.00
36092;BME280;22147;52.388;13.390;2023-01-16T15:49:18;98259.34;;;3.79;100.00
36092;BME280;22147;52.388;13.390;2023-01-16T15:52:01;98244.34;;;3.77;100.00
36092;BME280;22147;52.388;13.390;2023-01-16T15:54:31;98242.16;;;3.70;100.00
36092;BME280;22147;52.388;13.390;2023-01-16T15:57:02;98242.75;;;3.76;100.00
36092;BME280;22147;52.388;13.390;2023-01-16T15:59:53;98230.63;;;3.77;100.00
36092;BME280;22147;52.388;13.390;2023-01-16T16:02:26;98229.72;;;3.73;100.00
36092;BME280;22147;52.388;13.390;2023-01-16T16:05:03;98229.13;;;3.67;100.00
36092;BME280;22147;52.388;13.390;2023-01-16T16:07:34;98218.13;;;3.42;100.00
36092;BME280;22147;52.388;13.390;2023-01-16T16:10:04;98225.34;;;3.59;100.00
36092;BME280;22147;52.388;13.390;2023-01-16T16:12:35;98214.72;;;3.58;100.00